createdAt,value
2022-08-24T07:11:00.850Z,101645.31
2022-08-24T07:13:29.493Z,101640.91
2022-08-24T07:15:57.147Z,101633.81
2022-08-24T07:18:24.797Z,101641.84
2022-08-24T07:20:54.699Z,101650.91
2022-08-24T07:23:22.996Z,101651.19
2022-08-24T07:26:21.670Z,101651.78
2022-08-24T07:28:50.173Z,101645.50
2022-08-24T07:31:17.805Z,101646.28
2022-08-24T07:33:45.744Z,101649.09
2022-08-24T07:36:21.921Z,101647.53
2022-08-24T07:38:52.075Z,101642.66
2022-08-24T07:41:46.944Z,101643.41
2022-08-24T07:44:09.849Z,101647.75
2022-08-24T07:46:39.139Z,101650.69
2022-08-24T07:49:12.442Z,101648.31
2022-08-24T07:51:48.554Z,101657.97
2022-08-24T07:54:16.709Z,101652.25
2022-08-24T07:56:45.677Z,101653.19
2022-08-24T07:59:13.774Z,101656.63
2022-08-24T08:01:42.248Z,101654.41
2022-08-24T08:04:10.331Z,101651.59
2022-08-24T08:06:37.972Z,101654.41
2022-08-24T08:09:06.286Z,101656.19
2022-08-24T08:11:35.096Z,101659.63
2022-08-24T08:14:04.106Z,101661.41
2022-08-24T08:16:31.825Z,101659.91
2022-08-24T08:19:14.781Z,101661.47
2022-08-24T08:22:00.899Z,101666.78
2022-08-24T08:24:28.965Z,101672.06
2022-08-24T08:26:57.583Z,101671.94
2022-08-24T08:29:26.762Z,101673.69
2022-08-24T08:31:54.752Z,101675.94
2022-08-24T08:34:22.420Z,101674.41
2022-08-24T08:36:50.475Z,101668.31
2022-08-24T08:39:20.005Z,101668.19
2022-08-24T08:42:05.214Z,101663.41
2022-08-24T08:45:05.653Z,101664.06
2022-08-24T08:48:22.100Z,101671.00
2022-08-24T08:51:18.791Z,101661.47
2022-08-24T08:54:11.652Z,101671.91
2022-08-24T08:56:46.193Z,101672.13
2022-08-24T08:59:22.717Z,101676.16
2022-08-24T09:02:08.140Z,101680.81
2022-08-24T09:04:51.927Z,101668.53
2022-08-24T09:07:37.098Z,101681.28
2022-08-24T09:10:15.274Z,101682.59
2022-08-24T09:12:55.582Z,101670.53
2022-08-24T09:15:40.549Z,101681.41
2022-08-24T09:18:19.241Z,101684.72
2022-08-24T09:20:54.042Z,101678.75
2022-08-24T09:23:28.400Z,101680.00
2022-08-24T09:26:01.409Z,101671.09
2022-08-24T09:28:44.342Z,101677.22
2022-08-24T09:32:00.361Z,101676.09
2022-08-24T09:34:36.968Z,101676.00
2022-08-24T09:37:21.042Z,101672.13
2022-08-24T09:40:00.362Z,101670.31
2022-08-24T09:42:51.489Z,101669.13
2022-08-24T09:45:42.378Z,101670.41
2022-08-24T09:48:24.101Z,101667.47
2022-08-24T09:51:24.594Z,101663.50
2022-08-24T09:54:39.708Z,101674.53
2022-08-24T09:57:44.244Z,101662.88
2022-08-24T10:00:17.070Z,101664.94
2022-08-24T10:02:59.208Z,101660.34
2022-08-24T10:05:36.913Z,101669.97
2022-08-24T10:08:13.798Z,101660.13
2022-08-24T10:10:51.325Z,101654.09
2022-08-24T10:13:26.414Z,101656.19
2022-08-24T10:16:15.755Z,101650.78
2022-08-24T10:18:52.434Z,101648.69
2022-08-24T10:21:30.664Z,101657.03
2022-08-24T10:24:13.230Z,101653.50
2022-08-24T10:26:55.711Z,101650.38
2022-08-24T10:29:36.984Z,101651.81
2022-08-24T10:32:15.563Z,101648.50
2022-08-24T10:34:56.575Z,101637.28
2022-08-24T10:38:12.573Z,101639.16
2022-08-24T10:40:44.892Z,101635.78
2022-08-24T10:43:35.508Z,101638.06
2022-08-24T10:49:27.237Z,101632.81
2022-08-24T10:52:14.403Z,101634.94
2022-08-24T10:56:16.292Z,101617.78
2022-08-24T10:58:53.242Z,101629.06
2022-08-24T11:01:26.548Z,101634.28
2022-08-24T11:03:58.085Z,101617.31
2022-08-24T11:06:28.336Z,101624.31
2022-08-24T11:09:00.868Z,101632.22
2022-08-24T11:11:33.089Z,101623.81
2022-08-24T11:14:03.165Z,101622.13
2022-08-24T11:16:36.043Z,101627.97
2022-08-24T11:19:07.628Z,101621.53
2022-08-24T11:21:50.655Z,101626.31
2022-08-24T11:24:32.057Z,101615.41
2022-08-24T11:27:04.526Z,101615.41
2022-08-24T11:29:56.315Z,101617.03
2022-08-24T11:32:29.584Z,101615.66
2022-08-24T11:35:02.715Z,101622.63
2022-08-24T11:37:34.170Z,101622.97
2022-08-24T11:40:02.125Z,101612.09
2022-08-24T11:42:44.321Z,101607.97
2022-08-24T11:45:17.151Z,101626.22
2022-08-24T11:48:05.242Z,101617.72
2022-08-24T11:50:37.470Z,101615.28
2022-08-24T11:53:12.937Z,101606.56
2022-08-24T11:55:47.428Z,101612.03
2022-08-24T11:58:27.907Z,101613.97
2022-08-24T12:00:57.927Z,101615.84
2022-08-24T12:03:44.372Z,101603.59
2022-08-24T12:06:20.568Z,101598.78
2022-08-24T12:08:51.225Z,101603.50
2022-08-24T12:11:27.648Z,101609.34
2022-08-24T12:14:02.710Z,101603.63
2022-08-24T12:16:34.054Z,101602.31
2022-08-24T12:19:04.938Z,101596.00
2022-08-24T12:21:35.005Z,101595.66
2022-08-24T12:24:05.564Z,101598.22
2022-08-24T12:26:37.326Z,101595.28
2022-08-24T12:29:09.370Z,101601.34
2022-08-24T12:31:43.586Z,101596.13
2022-08-24T12:34:16.130Z,101598.94
2022-08-24T12:36:57.346Z,101591.63
2022-08-24T12:39:30.235Z,101596.81
2022-08-24T12:42:04.240Z,101595.09
2022-08-24T12:44:39.389Z,101588.94
2022-08-24T12:47:07.302Z,101590.97
2022-08-24T12:49:40.870Z,101592.03
2022-08-24T12:52:27.789Z,101593.91
2022-08-24T12:55:14.221Z,101597.28
2022-08-24T12:58:03.585Z,101603.44
2022-08-24T13:00:37.314Z,101593.44
2022-08-24T13:03:07.076Z,101594.28
2022-08-24T13:05:42.216Z,101593.38
2022-08-24T13:08:12.798Z,101585.59
2022-08-24T13:10:44.854Z,101587.34
2022-08-24T13:13:16.639Z,101582.69
2022-08-24T13:16:02.958Z,101586.22
2022-08-24T13:19:06.455Z,101584.94
2022-08-24T13:21:53.441Z,101579.41
2022-08-24T13:24:52.647Z,101575.44
2022-08-24T13:27:47.359Z,101573.03
2022-08-24T13:30:28.961Z,101578.81
2022-08-24T13:33:05.919Z,101579.06
2022-08-24T13:35:42.898Z,101578.16
2022-08-24T13:38:42.391Z,101576.63
2022-08-24T13:41:17.156Z,101579.00
2022-08-24T13:43:49.660Z,101577.69
2022-08-24T13:46:22.404Z,101577.34
2022-08-24T13:49:03.007Z,101577.09
2022-08-24T13:51:38.394Z,101567.19
2022-08-24T13:54:23.348Z,101572.63
2022-08-24T13:57:04.350Z,101569.19
2022-08-24T14:00:02.119Z,101573.38
2022-08-24T14:02:38.157Z,101566.13
2022-08-24T14:05:14.908Z,101573.97
2022-08-24T14:07:51.211Z,101572.47
2022-08-24T14:10:35.568Z,101568.91
2022-08-24T14:13:06.388Z,101562.28
2022-08-24T14:15:48.571Z,101566.00
2022-08-24T14:18:24.578Z,101563.88
2022-08-24T14:21:09.028Z,101560.22
2022-08-24T14:23:52.506Z,101549.78
2022-08-24T14:26:57.539Z,101560.56
2022-08-24T14:29:37.107Z,101556.50
2022-08-24T14:32:27.550Z,101557.38
2022-08-24T14:35:04.803Z,101553.34
2022-08-24T14:37:38.874Z,101549.44
2022-08-24T14:40:13.712Z,101548.09
2022-08-24T14:42:45.742Z,101546.81
2022-08-24T14:45:20.420Z,101551.28
2022-08-24T14:48:00.134Z,101547.97
2022-08-24T14:50:34.565Z,101554.53
2022-08-24T14:53:10.612Z,101543.25
2022-08-24T14:55:43.359Z,101545.41
2022-08-24T14:58:30.379Z,101551.22
2022-08-24T15:01:24.354Z,101539.81
2022-08-24T15:04:02.641Z,101541.25
2022-08-24T15:06:38.861Z,101541.25
2022-08-24T15:09:10.798Z,101536.72
2022-08-24T15:11:40.007Z,101536.88
2022-08-24T15:14:10.763Z,101533.53
2022-08-24T15:16:53.890Z,101536.03
2022-08-24T15:19:28.474Z,101526.06
2022-08-24T15:21:59.726Z,101529.88
2022-08-24T15:24:37.319Z,101532.22
2022-08-24T15:27:13.838Z,101531.97
2022-08-24T15:29:51.451Z,101529.00
2022-08-24T15:32:19.521Z,101528.72
2022-08-24T15:34:48.901Z,101529.53
2022-08-24T15:37:27.134Z,101521.09
2022-08-24T15:39:56.164Z,101517.84
2022-08-24T15:42:24.011Z,101517.34
2022-08-24T15:44:52.166Z,101518.25
2022-08-24T15:47:25.058Z,101519.81
2022-08-24T15:49:56.593Z,101523.44
2022-08-24T15:52:52.860Z,101528.75
2022-08-24T15:57:44.525Z,101528.63
2022-08-24T16:00:16.076Z,101523.63
2022-08-24T16:02:42.908Z,101519.25
2022-08-24T16:05:15.861Z,101518.66
2022-08-24T16:08:07.157Z,101525.97
2022-08-24T16:10:39.146Z,101518.50
2022-08-24T16:13:10.537Z,101515.19
2022-08-24T16:15:46.467Z,101520.63
2022-08-24T16:18:14.339Z,101514.34
2022-08-24T16:20:41.941Z,101522.28
2022-08-24T16:23:12.620Z,101516.25
2022-08-24T16:25:43.527Z,101513.53
2022-08-24T16:28:34.971Z,101515.66
2022-08-24T16:31:07.758Z,101515.03
2022-08-24T16:33:44.822Z,101524.25
2022-08-24T16:36:14.493Z,101520.47
2022-08-24T16:38:47.144Z,101518.97
2022-08-24T16:41:17.524Z,101522.28
2022-08-24T16:43:46.805Z,101516.59
2022-08-24T16:46:14.813Z,101524.69
2022-08-24T16:48:42.522Z,101517.72
2022-08-24T16:51:10.146Z,101507.78
2022-08-24T16:53:37.840Z,101513.78
2022-08-24T16:56:08.785Z,101520.63
2022-08-24T16:58:37.014Z,101513.88
2022-08-24T17:01:06.991Z,101515.19
2022-08-24T17:03:34.728Z,101510.81
2022-08-24T17:06:02.311Z,101508.78
2022-08-24T17:08:30.230Z,101514.81
2022-08-24T17:10:57.918Z,101515.03
2022-08-24T17:13:48.316Z,101520.72
2022-08-24T17:16:14.761Z,101511.72
2022-08-24T17:18:42.699Z,101509.84
2022-08-24T17:21:10.602Z,101519.06
2022-08-24T17:23:39.080Z,101510.91
2022-08-24T17:26:19.387Z,101513.22
2022-08-24T17:28:49.961Z,101511.00
2022-08-24T17:31:19.052Z,101521.28
2022-08-24T17:33:46.827Z,101516.91
2022-08-24T17:36:23.799Z,101515.22
2022-08-24T17:38:55.801Z,101518.78
2022-08-24T17:41:24.889Z,101519.00
2022-08-24T17:43:52.750Z,101524.69
2022-08-24T17:46:22.384Z,101524.09
2022-08-24T17:48:50.482Z,101525.38
2022-08-24T17:51:18.597Z,101526.41
2022-08-24T17:53:46.256Z,101528.56
2022-08-24T17:56:15.115Z,101534.22
2022-08-24T17:59:00.907Z,101536.56
2022-08-24T18:01:30.841Z,101535.13
2022-08-24T18:03:58.520Z,101531.19
2022-08-24T18:06:28.656Z,101539.34
2022-08-24T18:08:58.287Z,101528.78
2022-08-24T18:11:26.472Z,101534.22
2022-08-24T18:13:54.622Z,101535.50
2022-08-24T18:16:24.420Z,101548.50
2022-08-24T18:18:54.006Z,101539.97
2022-08-24T18:21:23.215Z,101545.59
2022-08-24T18:23:51.681Z,101552.34
2022-08-24T18:26:25.938Z,101555.72
2022-08-24T18:28:57.350Z,101560.81
2022-08-24T18:31:26.550Z,101554.97
2022-08-24T18:33:55.611Z,101554.59
2022-08-24T18:36:23.460Z,101557.16
2022-08-24T18:38:51.070Z,101562.44
2022-08-24T18:41:18.737Z,101569.16
2022-08-24T18:43:46.548Z,101573.38
2022-08-24T18:46:14.223Z,101574.88
2022-08-24T18:48:41.899Z,101576.38
2022-08-24T18:51:21.199Z,101572.41
2022-08-24T18:53:49.120Z,101575.81
2022-08-24T18:56:17.014Z,101577.06
2022-08-24T18:58:44.758Z,101582.13
2022-08-24T19:01:13.106Z,101584.25
2022-08-24T19:03:40.929Z,101585.50
2022-08-24T19:06:10.184Z,101587.63
2022-08-24T19:08:37.836Z,101588.91
2022-08-24T19:11:06.833Z,101588.28
2022-08-24T19:13:34.570Z,101585.16
2022-08-24T19:16:02.219Z,101588.13
2022-08-24T19:18:29.918Z,101589.38
2022-08-24T19:20:58.581Z,101589.00
2022-08-24T19:23:29.034Z,101589.41
2022-08-24T19:25:57.977Z,101580.66
2022-08-24T19:28:26.763Z,101579.44
2022-08-24T19:30:55.864Z,101586.13
2022-08-24T19:33:27.273Z,101590.13
2022-08-24T19:35:55.237Z,101592.25
2022-08-24T19:38:25.742Z,101588.88
2022-08-24T19:40:57.297Z,101586.81
2022-08-24T19:43:26.316Z,101595.59
2022-08-24T19:46:05.473Z,101590.03
2022-08-24T19:48:34.584Z,101594.19
2022-08-24T19:53:22.901Z,101599.28
2022-08-24T19:55:50.641Z,101593.25
2022-08-24T19:58:23.778Z,101588.44
2022-08-24T20:00:57.090Z,101590.34
2022-08-24T20:03:24.815Z,101591.59
2022-08-24T20:05:52.474Z,101598.50
2022-08-24T20:08:20.582Z,101594.34
2022-08-24T20:10:49.771Z,101592.03
2022-08-24T20:13:17.664Z,101594.16
2022-08-24T20:15:45.894Z,101595.63
2022-08-24T20:18:14.778Z,101596.06
2022-08-24T20:20:42.472Z,101596.50
2022-08-24T20:23:10.539Z,101593.56
2022-08-24T20:25:39.535Z,101591.06
2022-08-24T20:28:28.903Z,101595.22
2022-08-24T20:30:57.519Z,101587.13
2022-08-24T20:33:26.310Z,101591.94
2022-08-24T20:35:54.041Z,101588.00
2022-08-24T20:38:22.039Z,101591.94
2022-08-24T20:40:50.728Z,101590.72
2022-08-24T20:43:20.028Z,101590.28
2022-08-24T20:45:48.069Z,101574.06
2022-08-24T20:48:15.838Z,101589.47
2022-08-24T20:50:44.112Z,101594.50
2022-08-24T20:53:12.246Z,101588.66
2022-08-24T20:55:40.253Z,101592.84
2022-08-24T20:58:07.940Z,101588.47
2022-08-24T21:00:37.346Z,101590.53
2022-08-24T21:03:05.521Z,101594.28
2022-08-24T21:05:33.390Z,101592.84
2022-08-24T21:08:01.166Z,101590.34
2022-08-24T21:10:28.846Z,101593.47
2022-08-24T21:12:56.609Z,101599.91
2022-08-24T21:15:24.272Z,101594.91
2022-08-24T21:17:53.857Z,101591.59
2022-08-24T21:20:21.906Z,101586.34
2022-08-24T21:22:49.849Z,101589.28
2022-08-24T21:25:19.642Z,101588.06
2022-08-24T21:27:49.019Z,101582.41
2022-08-24T21:30:18.649Z,101593.88
2022-08-24T21:33:04.525Z,101586.78
2022-08-24T21:35:34.193Z,101583.47
2022-08-24T21:38:01.876Z,101588.28
2022-08-24T21:40:29.658Z,101585.94
2022-08-24T21:42:57.384Z,101587.84
2022-08-24T21:45:25.470Z,101585.34
2022-08-24T21:47:54.459Z,101583.06
2022-08-24T21:50:25.458Z,101577.81
2022-08-24T21:52:54.970Z,101577.00
2022-08-24T21:55:22.969Z,101588.88
2022-08-24T21:57:50.838Z,101586.59
2022-08-24T22:00:20.241Z,101580.56
2022-08-24T22:02:48.750Z,101584.72
2022-08-24T22:05:17.362Z,101592.00
2022-08-24T22:07:45.532Z,101580.56
2022-08-24T22:10:14.942Z,101576.38
2022-08-24T22:12:43.775Z,101581.38
2022-08-24T22:15:16.020Z,101588.66
2022-08-24T22:17:46.473Z,101583.25
2022-08-24T22:20:22.339Z,101586.56
2022-08-24T22:22:51.594Z,101583.88
2022-08-24T22:25:20.748Z,101580.75
2022-08-24T22:27:48.672Z,101573.66
2022-08-24T22:30:18.098Z,101568.66
2022-08-24T22:32:46.381Z,101569.66
2022-08-24T22:35:14.454Z,101570.69
2022-08-24T22:37:42.324Z,101556.94
2022-08-24T22:40:12.618Z,101557.59
2022-08-24T22:42:42.266Z,101567.78
2022-08-24T22:45:11.042Z,101556.94
2022-08-24T22:47:38.850Z,101560.91
2022-08-24T22:50:07.966Z,101561.50
2022-08-24T22:52:35.634Z,101556.91
2022-08-24T22:55:03.624Z,101554.44
2022-08-24T22:57:31.373Z,101556.50
2022-08-24T23:00:02.435Z,101555.25
2022-08-24T23:02:30.173Z,101565.06
2022-08-24T23:04:57.877Z,101565.06
2022-08-24T23:07:25.954Z,101560.03
2022-08-24T23:09:53.653Z,101555.03
2022-08-24T23:12:22.893Z,101563.16
2022-08-24T23:14:51.355Z,101563.16
2022-08-24T23:17:21.897Z,101559.81
2022-08-24T23:20:01.224Z,101561.91
2022-08-24T23:22:31.608Z,101558.56
2022-08-24T23:24:59.527Z,101563.34
2022-08-24T23:27:32.816Z,101566.06
2022-08-24T23:30:06.655Z,101559.38
2022-08-24T23:32:35.737Z,101562.69
2022-08-24T23:35:04.358Z,101563.13
2022-08-24T23:37:32.087Z,101567.72
2022-08-24T23:40:00.024Z,101566.03
2022-08-24T23:42:27.812Z,101566.25
2022-08-24T23:44:55.506Z,101566.25
2022-08-24T23:47:23.237Z,101560.19
2022-08-24T23:49:52.290Z,101564.78
2022-08-24T23:52:26.698Z,101560.59
2022-08-24T23:55:06.086Z,101569.78
2022-08-24T23:57:45.749Z,101566.44
